sensor_id;sensor_type;location;lat;lon;timestamp;P1;durP1;ratioP1;P2;durP2;ratioP2
3274;SDS011;1649;53.672;10.064;2023-07-29T00:00:40;7.00;;;4.80;;
3274;SDS011;1649;53.672;10.064;2023-07-29T00:03:07;9.53;;;5.10;;
3274;SDS011;1649;53.672;10.064;2023-07-29T00:05:33;7.33;;;4.70;;
3274;SDS011;1649;53.672;10.064;2023-07-29T00:07:58;9.23;;;4.53;;
3274;SDS011;1649;53.672;10.064;2023-07-29T00:10:24;7.70;;;4.93;;
3274;SDS011;1649;53.672;10.064;2023-07-29T00:12:49;7.80;;;5.27;;
3274;SDS011;1649;53.672;10.064;2023-07-29T00:15:15;7.80;;;5.03;;
3274;SDS011;1649;53.672;10.064;2023-07-29T00:17:40;6.93;;;4.57;;
3274;SDS011;1649;53.672;10.064;2023-07-29T00:20:06;7.47;;;4.70;;
3274;SDS011;1649;53.672;10.064;2023-07-29T00:22:33;6.90;;;4.30;;
3274;SDS011;1649;53.672;10.064;2023-07-29T00:24:58;7.53;;;4.70;;
3274;SDS011;1649;53.672;10.064;2023-07-29T00:27:24;6.40;;;4.10;;
3274;SDS011;1649;53.672;10.064;2023-07-29T00:29:50;6.40;;;4.03;;
3274;SDS011;1649;53.672;10.064;2023-07-29T00:32:15;7.87;;;4.47;;
3274;SDS011;1649;53.672;10.064;2023-07-29T00:34:41;7.13;;;4.00;;
3274;SDS011;1649;53.672;10.064;2023-07-29T00:37:06;6.97;;;4.20;;
3274;SDS011;1649;53.672;10.064;2023-07-29T00:39:32;8.73;;;4.60;;
3274;SDS011;1649;53.672;10.064;2023-07-29T00:41:57;7.20;;;4.20;;
3274;SDS011;1649;53.672;10.064;2023-07-29T00:44:23;6.60;;;4.20;;
3274;SDS011;1649;53.672;10.064;2023-07-29T00:46:52;7.27;;;4.30;;
3274;SDS011;1649;53.672;10.064;2023-07-29T00:49:18;7.43;;;4.53;;
3274;SDS011;1649;53.672;10.064;2023-07-29T00:51:44;6.50;;;4.10;;
3274;SDS011;1649;53.672;10.064;2023-07-29T00:54:10;6.77;;;4.40;;
3274;SDS011;1649;53.672;10.064;2023-07-29T00:56:36;6.83;;;4.27;;
3274;SDS011;1649;53.672;10.064;2023-07-29T00:59:01;7.17;;;4.33;;
3274;SDS011;1649;53.672;10.064;2023-07-29T01:01:27;6.80;;;3.90;;
3274;SDS011;1649;53.672;10.064;2023-07-29T01:03:54;6.90;;;4.30;;
3274;SDS011;1649;53.672;10.064;2023-07-29T01:06:29;7.40;;;4.20;;
3274;SDS011;1649;53.672;10.064;2023-07-29T01:09:05;7.00;;;4.70;;
3274;SDS011;1649;53.672;10.064;2023-07-29T01:14:10;8.60;;;4.70;;
3274;SDS011;1649;53.672;10.064;2023-07-29T01:16:59;7.90;;;5.13;;
3274;SDS011;1649;53.672;10.064;2023-07-29T01:22:24;7.73;;;5.30;;
3274;SDS011;1649;53.672;10.064;2023-07-29T01:24:50;7.17;;;4.83;;
3274;SDS011;1649;53.672;10.064;2023-07-29T01:27:16;9.90;;;5.07;;
3274;SDS011;1649;53.672;10.064;2023-07-29T01:29:41;10.47;;;5.03;;
3274;SDS011;1649;53.672;10.064;2023-07-29T01:32:10;8.53;;;4.93;;
3274;SDS011;1649;53.672;10.064;2023-07-29T01:34:41;7.70;;;4.67;;
3274;SDS011;1649;53.672;10.064;2023-07-29T01:37:13;8.33;;;5.60;;
3274;SDS011;1649;53.672;10.064;2023-07-29T01:39:44;7.57;;;4.87;;
3274;SDS011;1649;53.672;10.064;2023-07-29T01:42:11;7.57;;;4.67;;
3274;SDS011;1649;53.672;10.064;2023-07-29T01:44:37;7.63;;;4.70;;
3274;SDS011;1649;53.672;10.064;2023-07-29T01:47:02;8.27;;;5.10;;
3274;SDS011;1649;53.672;10.064;2023-07-29T01:49:28;7.60;;;4.93;;
3274;SDS011;1649;53.672;10.064;2023-07-29T01:51:53;7.03;;;4.77;;
3274;SDS011;1649;53.672;10.064;2023-07-29T01:54:19;7.50;;;4.97;;
3274;SDS011;1649;53.672;10.064;2023-07-29T01:56:44;10.30;;;5.33;;
3274;SDS011;1649;53.672;10.064;2023-07-29T01:59:10;7.50;;;5.03;;
3274;SDS011;1649;53.672;10.064;2023-07-29T02:01:36;8.20;;;5.00;;
3274;SDS011;1649;53.672;10.064;2023-07-29T02:04:01;9.00;;;6.20;;
3274;SDS011;1649;53.672;10.064;2023-07-29T02:06:27;7.93;;;5.83;;
3274;SDS011;1649;53.672;10.064;2023-07-29T02:08:53;9.13;;;6.10;;
3274;SDS011;1649;53.672;10.064;2023-07-29T02:11:19;12.70;;;7.33;;
3274;SDS011;1649;53.672;10.064;2023-07-29T02:13:52;10.27;;;7.17;;
3274;SDS011;1649;53.672;10.064;2023-07-29T02:16:17;13.17;;;8.33;;
3274;SDS011;1649;53.672;10.064;2023-07-29T02:18:43;16.10;;;9.20;;
3274;SDS011;1649;53.672;10.064;2023-07-29T02:21:08;13.90;;;9.80;;
3274;SDS011;1649;53.672;10.064;2023-07-29T02:23:34;14.67;;;8.90;;
3274;SDS011;1649;53.672;10.064;2023-07-29T02:25:59;14.03;;;9.87;;
3274;SDS011;1649;53.672;10.064;2023-07-29T02:28:24;13.57;;;9.27;;
3274;SDS011;1649;53.672;10.064;2023-07-29T02:30:55;14.37;;;10.20;;
3274;SDS011;1649;53.672;10.064;2023-07-29T02:33:35;16.57;;;10.97;;
3274;SDS011;1649;53.672;10.064;2023-07-29T02:36:01;16.43;;;11.47;;
3274;SDS011;1649;53.672;10.064;2023-07-29T02:38:26;16.47;;;10.60;;
3274;SDS011;1649;53.672;10.064;2023-07-29T02:40:52;16.30;;;11.77;;
3274;SDS011;1649;53.672;10.064;2023-07-29T02:43:17;15.83;;;12.23;;
3274;SDS011;1649;53.672;10.064;2023-07-29T02:45:42;19.67;;;12.60;;
3274;SDS011;1649;53.672;10.064;2023-07-29T02:48:08;16.23;;;12.80;;
3274;SDS011;1649;53.672;10.064;2023-07-29T02:50:34;18.87;;;13.37;;
3274;SDS011;1649;53.672;10.064;2023-07-29T02:52:59;16.87;;;12.53;;
3274;SDS011;1649;53.672;10.064;2023-07-29T02:55:26;20.20;;;14.00;;
3274;SDS011;1649;53.672;10.064;2023-07-29T02:57:52;18.10;;;13.10;;
3274;SDS011;1649;53.672;10.064;2023-07-29T03:00:17;19.47;;;13.77;;
3274;SDS011;1649;53.672;10.064;2023-07-29T03:02:43;18.70;;;13.07;;
3274;SDS011;1649;53.672;10.064;2023-07-29T03:05:08;21.20;;;14.80;;
3274;SDS011;1649;53.672;10.064;2023-07-29T03:07:34;23.30;;;14.87;;
3274;SDS011;1649;53.672;10.064;2023-07-29T03:09:59;22.57;;;16.47;;
3274;SDS011;1649;53.672;10.064;2023-07-29T03:12:24;22.40;;;15.97;;
3274;SDS011;1649;53.672;10.064;2023-07-29T03:14:50;22.17;;;16.70;;
3274;SDS011;1649;53.672;10.064;2023-07-29T03:17:16;22.63;;;17.17;;
3274;SDS011;1649;53.672;10.064;2023-07-29T03:19:41;23.47;;;17.17;;
3274;SDS011;1649;53.672;10.064;2023-07-29T03:22:07;23.60;;;17.00;;
3274;SDS011;1649;53.672;10.064;2023-07-29T03:24:32;21.00;;;15.80;;
3274;SDS011;1649;53.672;10.064;2023-07-29T03:26:57;23.47;;;16.40;;
3274;SDS011;1649;53.672;10.064;2023-07-29T03:29:23;22.40;;;16.87;;
3274;SDS011;1649;53.672;10.064;2023-07-29T03:31:48;24.27;;;17.07;;
3274;SDS011;1649;53.672;10.064;2023-07-29T03:34:14;23.00;;;17.03;;
3274;SDS011;1649;53.672;10.064;2023-07-29T03:36:39;26.07;;;18.27;;
3274;SDS011;1649;53.672;10.064;2023-07-29T03:39:05;25.03;;;18.87;;
3274;SDS011;1649;53.672;10.064;2023-07-29T03:41:32;26.20;;;19.27;;
3274;SDS011;1649;53.672;10.064;2023-07-29T03:43:58;26.30;;;18.40;;
3274;SDS011;1649;53.672;10.064;2023-07-29T03:46:24;30.80;;;18.93;;
3274;SDS011;1649;53.672;10.064;2023-07-29T03:48:49;27.60;;;19.93;;
3274;SDS011;1649;53.672;10.064;2023-07-29T03:51:15;30.03;;;20.60;;
3274;SDS011;1649;53.672;10.064;2023-07-29T03:53:40;30.67;;;21.27;;
3274;SDS011;1649;53.672;10.064;2023-07-29T03:56:06;33.10;;;21.30;;
3274;SDS011;1649;53.672;10.064;2023-07-29T03:58:32;29.50;;;20.73;;
3274;SDS011;1649;53.672;10.064;2023-07-29T04:00:58;31.10;;;20.43;;
3274;SDS011;1649;53.672;10.064;2023-07-29T04:03:23;30.43;;;21.50;;
3274;SDS011;1649;53.672;10.064;2023-07-29T04:05:49;33.83;;;20.97;;
3274;SDS011;1649;53.672;10.064;2023-07-29T04:08:15;34.63;;;22.80;;
3274;SDS011;1649;53.672;10.064;2023-07-29T04:10:40;32.23;;;23.40;;
3274;SDS011;1649;53.672;10.064;2023-07-29T04:13:06;32.37;;;22.37;;
3274;SDS011;1649;53.672;10.064;2023-07-29T04:15:31;38.90;;;25.53;;
3274;SDS011;1649;53.672;10.064;2023-07-29T04:17:57;38.20;;;25.63;;
3274;SDS011;1649;53.672;10.064;2023-07-29T04:20:22;37.33;;;25.60;;
3274;SDS011;1649;53.672;10.064;2023-07-29T04:22:47;40.20;;;25.67;;
3274;SDS011;1649;53.672;10.064;2023-07-29T04:25:13;39.50;;;27.87;;
3274;SDS011;1649;53.672;10.064;2023-07-29T04:27:38;37.40;;;26.20;;
3274;SDS011;1649;53.672;10.064;2023-07-29T04:30:04;37.77;;;26.57;;
3274;SDS011;1649;53.672;10.064;2023-07-29T04:32:30;44.07;;;28.37;;
3274;SDS011;1649;53.672;10.064;2023-07-29T04:34:56;37.53;;;26.70;;
3274;SDS011;1649;53.672;10.064;2023-07-29T04:37:21;35.93;;;25.90;;
3274;SDS011;1649;53.672;10.064;2023-07-29T04:39:47;42.60;;;28.17;;
3274;SDS011;1649;53.672;10.064;2023-07-29T04:42:12;38.03;;;27.17;;
3274;SDS011;1649;53.672;10.064;2023-07-29T04:44:38;37.13;;;26.83;;
3274;SDS011;1649;53.672;10.064;2023-07-29T04:47:03;40.90;;;27.93;;
3274;SDS011;1649;53.672;10.064;2023-07-29T04:49:29;44.57;;;29.57;;
3274;SDS011;1649;53.672;10.064;2023-07-29T04:51:54;54.20;;;31.13;;
3274;SDS011;1649;53.672;10.064;2023-07-29T04:54:20;43.80;;;28.63;;
3274;SDS011;1649;53.672;10.064;2023-07-29T04:56:46;45.63;;;29.33;;
3274;SDS011;1649;53.672;10.064;2023-07-29T04:59:12;44.30;;;29.73;;
3274;SDS011;1649;53.672;10.064;2023-07-29T05:01:38;48.87;;;31.27;;
3274;SDS011;1649;53.672;10.064;2023-07-29T05:04:03;42.77;;;28.63;;
3274;SDS011;1649;53.672;10.064;2023-07-29T05:06:29;44.43;;;28.40;;
3274;SDS011;1649;53.672;10.064;2023-07-29T05:08:56;43.60;;;28.10;;
3274;SDS011;1649;53.672;10.064;2023-07-29T05:11:22;37.33;;;25.67;;
3274;SDS011;1649;53.672;10.064;2023-07-29T05:13:50;44.43;;;27.93;;
3274;SDS011;1649;53.672;10.064;2023-07-29T05:16:15;40.80;;;28.03;;
3274;SDS011;1649;53.672;10.064;2023-07-29T05:18:41;42.83;;;27.10;;
3274;SDS011;1649;53.672;10.064;2023-07-29T05:21:06;41.70;;;25.23;;
3274;SDS011;1649;53.672;10.064;2023-07-29T05:23:33;40.37;;;25.43;;
3274;SDS011;1649;53.672;10.064;2023-07-29T05:25:58;38.63;;;26.73;;
3274;SDS011;1649;53.672;10.064;2023-07-29T05:28:24;37.90;;;26.10;;
3274;SDS011;1649;53.672;10.064;2023-07-29T05:30:49;34.37;;;23.50;;
3274;SDS011;1649;53.672;10.064;2023-07-29T05:33:15;40.17;;;25.10;;
3274;SDS011;1649;53.672;10.064;2023-07-29T05:35:40;36.07;;;24.60;;
3274;SDS011;1649;53.672;10.064;2023-07-29T05:38:06;37.40;;;23.90;;
3274;SDS011;1649;53.672;10.064;2023-07-29T05:40:33;32.70;;;23.37;;
3274;SDS011;1649;53.672;10.064;2023-07-29T05:42:59;30.17;;;20.73;;
3274;SDS011;1649;53.672;10.064;2023-07-29T05:45:24;33.30;;;23.50;;
3274;SDS011;1649;53.672;10.064;2023-07-29T05:47:50;33.10;;;22.17;;
3274;SDS011;1649;53.672;10.064;2023-07-29T05:50:15;33.03;;;22.57;;
3274;SDS011;1649;53.672;10.064;2023-07-29T05:52:41;31.60;;;23.20;;
3274;SDS011;1649;53.672;10.064;2023-07-29T05:55:06;34.03;;;22.80;;
3274;SDS011;1649;53.672;10.064;2023-07-29T05:57:32;29.97;;;22.73;;
3274;SDS011;1649;53.672;10.064;2023-07-29T05:59:58;34.27;;;23.97;;
3274;SDS011;1649;53.672;10.064;2023-07-29T06:02:23;28.37;;;21.63;;
3274;SDS011;1649;53.672;10.064;2023-07-29T06:04:49;30.20;;;22.43;;
3274;SDS011;1649;53.672;10.064;2023-07-29T06:07:14;28.63;;;22.00;;
3274;SDS011;1649;53.672;10.064;2023-07-29T06:09:40;31.50;;;21.60;;
3274;SDS011;1649;53.672;10.064;2023-07-29T06:12:06;30.40;;;21.43;;
3274;SDS011;1649;53.672;10.064;2023-07-29T06:14:31;26.03;;;19.83;;
3274;SDS011;1649;53.672;10.064;2023-07-29T06:16:57;31.23;;;21.30;;
3274;SDS011;1649;53.672;10.064;2023-07-29T06:19:22;28.43;;;21.13;;
3274;SDS011;1649;53.672;10.064;2023-07-29T06:21:48;27.60;;;21.10;;
3274;SDS011;1649;53.672;10.064;2023-07-29T06:24:13;31.00;;;20.60;;
3274;SDS011;1649;53.672;10.064;2023-07-29T06:26:39;27.23;;;20.10;;
3274;SDS011;1649;53.672;10.064;2023-07-29T06:29:04;30.13;;;21.13;;
3274;SDS011;1649;53.672;10.064;2023-07-29T06:31:30;27.90;;;20.27;;
3274;SDS011;1649;53.672;10.064;2023-07-29T06:33:57;27.33;;;19.73;;
3274;SDS011;1649;53.672;10.064;2023-07-29T06:36:23;26.87;;;20.50;;
3274;SDS011;1649;53.672;10.064;2023-07-29T06:38:48;27.77;;;21.00;;
3274;SDS011;1649;53.672;10.064;2023-07-29T06:41:14;26.43;;;19.13;;
3274;SDS011;1649;53.672;10.064;2023-07-29T06:43:39;28.50;;;21.80;;
3274;SDS011;1649;53.672;10.064;2023-07-29T06:46:05;27.10;;;20.80;;
3274;SDS011;1649;53.672;10.064;2023-07-29T06:48:30;32.10;;;20.97;;
3274;SDS011;1649;53.672;10.064;2023-07-29T06:50:56;28.43;;;20.87;;
3274;SDS011;1649;53.672;10.064;2023-07-29T06:53:25;24.60;;;19.20;;
3274;SDS011;1649;53.672;10.064;2023-07-29T06:55:51;28.10;;;20.20;;
3274;SDS011;1649;53.672;10.064;2023-07-29T06:58:16;27.30;;;19.77;;
3274;SDS011;1649;53.672;10.064;2023-07-29T07:00:42;27.13;;;19.80;;
3274;SDS011;1649;53.672;10.064;2023-07-29T07:03:07;27.27;;;20.60;;
3274;SDS011;1649;53.672;10.064;2023-07-29T07:05:33;28.53;;;19.80;;
3274;SDS011;1649;53.672;10.064;2023-07-29T07:07:58;28.00;;;19.10;;
3274;SDS011;1649;53.672;10.064;2023-07-29T07:10:24;28.37;;;20.73;;
3274;SDS011;1649;53.672;10.064;2023-07-29T07:12:49;27.07;;;21.17;;
3274;SDS011;1649;53.672;10.064;2023-07-29T07:15:15;26.03;;;20.07;;
3274;SDS011;1649;53.672;10.064;2023-07-29T07:17:41;28.90;;;20.67;;
3274;SDS011;1649;53.672;10.064;2023-07-29T07:20:06;26.80;;;20.90;;
3274;SDS011;1649;53.672;10.064;2023-07-29T07:22:32;26.93;;;19.53;;
3274;SDS011;1649;53.672;10.064;2023-07-29T07:24:58;29.40;;;20.47;;
3274;SDS011;1649;53.672;10.064;2023-07-29T07:27:23;29.57;;;20.20;;
3274;SDS011;1649;53.672;10.064;2023-07-29T07:29:48;29.80;;;22.10;;
3274;SDS011;1649;53.672;10.064;2023-07-29T07:32:14;29.10;;;20.70;;
3274;SDS011;1649;53.672;10.064;2023-07-29T07:34:39;28.57;;;21.93;;
3274;SDS011;1649;53.672;10.064;2023-07-29T07:37:05;32.00;;;23.27;;
3274;SDS011;1649;53.672;10.064;2023-07-29T07:39:31;28.67;;;21.57;;
3274;SDS011;1649;53.672;10.064;2023-07-29T07:41:56;29.83;;;24.17;;
3274;SDS011;1649;53.672;10.064;2023-07-29T07:44:22;33.97;;;26.00;;
3274;SDS011;1649;53.672;10.064;2023-07-29T07:46:48;32.60;;;24.10;;
3274;SDS011;1649;53.672;10.064;2023-07-29T07:49:13;34.73;;;26.23;;
3274;SDS011;1649;53.672;10.064;2023-07-29T07:51:39;34.77;;;25.93;;
3274;SDS011;1649;53.672;10.064;2023-07-29T07:54:04;35.70;;;25.83;;
3274;SDS011;1649;53.672;10.064;2023-07-29T07:56:30;37.20;;;25.70;;
3274;SDS011;1649;53.672;10.064;2023-07-29T07:58:55;36.17;;;25.50;;
3274;SDS011;1649;53.672;10.064;2023-07-29T08:01:21;35.87;;;26.30;;
3274;SDS011;1649;53.672;10.064;2023-07-29T08:03:46;34.47;;;24.80;;
3274;SDS011;1649;53.672;10.064;2023-07-29T08:06:12;37.70;;;27.40;;
3274;SDS011;1649;53.672;10.064;2023-07-29T08:08:37;37.27;;;26.47;;
3274;SDS011;1649;53.672;10.064;2023-07-29T08:11:03;41.43;;;25.93;;
3274;SDS011;1649;53.672;10.064;2023-07-29T08:13:28;37.77;;;27.33;;
3274;SDS011;1649;53.672;10.064;2023-07-29T08:15:54;39.87;;;26.67;;
3274;SDS011;1649;53.672;10.064;2023-07-29T08:18:19;39.40;;;27.80;;
3274;SDS011;1649;53.672;10.064;2023-07-29T08:20:52;40.80;;;26.63;;
3274;SDS011;1649;53.672;10.064;2023-07-29T08:23:18;34.50;;;23.30;;
3274;SDS011;1649;53.672;10.064;2023-07-29T08:25:44;38.60;;;25.60;;
3274;SDS011;1649;53.672;10.064;2023-07-29T08:28:09;48.60;;;28.23;;
3274;SDS011;1649;53.672;10.064;2023-07-29T08:30:36;38.87;;;27.40;;
3274;SDS011;1649;53.672;10.064;2023-07-29T08:33:01;39.10;;;26.20;;
3274;SDS011;1649;53.672;10.064;2023-07-29T08:35:27;41.33;;;28.00;;
3274;SDS011;1649;53.672;10.064;2023-07-29T08:37:52;40.00;;;26.63;;
3274;SDS011;1649;53.672;10.064;2023-07-29T08:40:18;39.63;;;25.80;;
3274;SDS011;1649;53.672;10.064;2023-07-29T08:42:49;37.13;;;24.97;;
3274;SDS011;1649;53.672;10.064;2023-07-29T08:45:15;38.33;;;25.73;;
3274;SDS011;1649;53.672;10.064;2023-07-29T08:47:42;38.87;;;25.53;;
3274;SDS011;1649;53.672;10.064;2023-07-29T08:50:08;38.50;;;25.70;;
3274;SDS011;1649;53.672;10.064;2023-07-29T08:52:34;42.80;;;25.63;;
3274;SDS011;1649;53.672;10.064;2023-07-29T08:55:01;34.97;;;25.40;;
3274;SDS011;1649;53.672;10.064;2023-07-29T08:57:26;32.50;;;23.07;;
3274;SDS011;1649;53.672;10.064;2023-07-29T08:59:52;32.83;;;23.50;;
3274;SDS011;1649;53.672;10.064;2023-07-29T09:02:20;34.10;;;23.57;;
3274;SDS011;1649;53.672;10.064;2023-07-29T09:04:45;28.70;;;22.07;;
3274;SDS011;1649;53.672;10.064;2023-07-29T09:07:11;28.37;;;21.73;;
3274;SDS011;1649;53.672;10.064;2023-07-29T09:09:37;28.47;;;21.30;;
3274;SDS011;1649;53.672;10.064;2023-07-29T09:12:02;28.00;;;21.20;;
3274;SDS011;1649;53.672;10.064;2023-07-29T09:14:28;28.67;;;21.37;;
3274;SDS011;1649;53.672;10.064;2023-07-29T09:16:54;26.67;;;21.90;;
3274;SDS011;1649;53.672;10.064;2023-07-29T09:19:19;27.97;;;20.40;;
3274;SDS011;1649;53.672;10.064;2023-07-29T09:21:45;26.07;;;20.57;;
3274;SDS011;1649;53.672;10.064;2023-07-29T09:24:12;23.67;;;19.10;;
3274;SDS011;1649;53.672;10.064;2023-07-29T09:26:40;28.33;;;20.23;;
3274;SDS011;1649;53.672;10.064;2023-07-29T09:29:13;25.40;;;19.03;;
3274;SDS011;1649;53.672;10.064;2023-07-29T09:31:39;24.53;;;19.20;;
3274;SDS011;1649;53.672;10.064;2023-07-29T09:34:04;25.67;;;19.20;;
3274;SDS011;1649;53.672;10.064;2023-07-29T09:36:31;23.97;;;18.63;;
3274;SDS011;1649;53.672;10.064;2023-07-29T09:38:58;26.47;;;19.37;;
3274;SDS011;1649;53.672;10.064;2023-07-29T09:41:24;22.00;;;17.33;;
3274;SDS011;1649;53.672;10.064;2023-07-29T09:43:57;21.70;;;16.70;;
3274;SDS011;1649;53.672;10.064;2023-07-29T09:46:31;21.93;;;16.10;;
3274;SDS011;1649;53.672;10.064;2023-07-29T09:49:05;18.90;;;14.83;;
3274;SDS011;1649;53.672;10.064;2023-07-29T09:51:31;22.00;;;14.40;;
3274;SDS011;1649;53.672;10.064;2023-07-29T09:54:03;15.90;;;12.67;;
3274;SDS011;1649;53.672;10.064;2023-07-29T09:56:29;16.03;;;12.67;;
3274;SDS011;1649;53.672;10.064;2023-07-29T09:58:55;14.80;;;11.63;;
3274;SDS011;1649;53.672;10.064;2023-07-29T10:01:22;13.97;;;12.23;;
3274;SDS011;1649;53.672;10.064;2023-07-29T10:03:48;14.23;;;11.50;;
3274;SDS011;1649;53.672;10.064;2023-07-29T10:06:14;14.07;;;11.30;;
3274;SDS011;1649;53.672;10.064;2023-07-29T10:08:40;14.50;;;10.80;;
3274;SDS011;1649;53.672;10.064;2023-07-29T10:11:08;11.13;;;9.13;;
3274;SDS011;1649;53.672;10.064;2023-07-29T10:13:35;8.50;;;6.40;;
3274;SDS011;1649;53.672;10.064;2023-07-29T10:16:01;11.40;;;8.30;;
3274;SDS011;1649;53.672;10.064;2023-07-29T10:18:28;10.30;;;7.43;;
3274;SDS011;1649;53.672;10.064;2023-07-29T10:20:56;8.10;;;6.50;;
3274;SDS011;1649;53.672;10.064;2023-07-29T10:23:22;7.57;;;6.30;;
3274;SDS011;1649;53.672;10.064;2023-07-29T10:25:52;9.70;;;5.60;;
3274;SDS011;1649;53.672;10.064;2023-07-29T10:28:25;7.30;;;5.73;;
3274;SDS011;1649;53.672;10.064;2023-07-29T10:30:52;7.33;;;4.97;;
3274;SDS011;1649;53.672;10.064;2023-07-29T10:33:19;7.30;;;5.97;;
3274;SDS011;1649;53.672;10.064;2023-07-29T10:35:45;8.20;;;5.93;;
3274;SDS011;1649;53.672;10.064;2023-07-29T10:38:11;7.60;;;5.33;;
3274;SDS011;1649;53.672;10.064;2023-07-29T10:40:47;7.67;;;5.90;;
3274;SDS011;1649;53.672;10.064;2023-07-29T10:43:29;9.70;;;5.63;;
3274;SDS011;1649;53.672;10.064;2023-07-29T10:45:59;6.87;;;5.00;;
3274;SDS011;1649;53.672;10.064;2023-07-29T10:48:44;8.20;;;6.40;;
3274;SDS011;1649;53.672;10.064;2023-07-29T10:54:12;8.43;;;6.00;;
3274;SDS011;1649;53.672;10.064;2023-07-29T10:56:43;7.27;;;5.40;;
3274;SDS011;1649;53.672;10.064;2023-07-29T11:01:38;8.30;;;5.60;;
3274;SDS011;1649;53.672;10.064;2023-07-29T11:12:34;8.37;;;5.70;;
3274;SDS011;1649;53.672;10.064;2023-07-29T11:15:16;7.10;;;4.50;;
3274;SDS011;1649;53.672;10.064;2023-07-29T11:17:53;6.47;;;4.40;;
3274;SDS011;1649;53.672;10.064;2023-07-29T11:20:20;7.40;;;4.37;;
3274;SDS011;1649;53.672;10.064;2023-07-29T11:22:47;5.80;;;4.00;;
3274;SDS011;1649;53.672;10.064;2023-07-29T11:25:14;12.83;;;4.30;;
3274;SDS011;1649;53.672;10.064;2023-07-29T11:27:40;6.53;;;4.50;;
3274;SDS011;1649;53.672;10.064;2023-07-29T11:30:08;5.90;;;4.03;;
3274;SDS011;1649;53.672;10.064;2023-07-29T11:32:37;6.90;;;4.40;;
3274;SDS011;1649;53.672;10.064;2023-07-29T11:35:07;5.33;;;3.47;;
3274;SDS011;1649;53.672;10.064;2023-07-29T11:37:35;6.97;;;3.80;;
3274;SDS011;1649;53.672;10.064;2023-07-29T11:40:02;6.40;;;4.03;;
3274;SDS011;1649;53.672;10.064;2023-07-29T11:42:28;6.73;;;5.23;;
3274;SDS011;1649;53.672;10.064;2023-07-29T11:44:57;7.40;;;4.53;;
3274;SDS011;1649;53.672;10.064;2023-07-29T11:47:23;6.77;;;4.70;;
3274;SDS011;1649;53.672;10.064;2023-07-29T11:49:49;6.00;;;3.87;;
3274;SDS011;1649;53.672;10.064;2023-07-29T11:52:14;6.50;;;4.33;;
3274;SDS011;1649;53.672;10.064;2023-07-29T11:54:44;6.30;;;3.80;;
3274;SDS011;1649;53.672;10.064;2023-07-29T11:57:10;7.13;;;3.90;;
3274;SDS011;1649;53.672;10.064;2023-07-29T11:59:36;6.80;;;3.70;;
3274;SDS011;1649;53.672;10.064;2023-07-29T12:02:05;5.97;;;4.00;;
3274;SDS011;1649;53.672;10.064;2023-07-29T12:04:35;6.10;;;3.73;;
3274;SDS011;1649;53.672;10.064;2023-07-29T12:07:02;5.50;;;3.50;;
3274;SDS011;1649;53.672;10.064;2023-07-29T12:09:28;6.60;;;4.37;;
3274;SDS011;1649;53.672;10.064;2023-07-29T12:11:54;6.60;;;3.57;;
3274;SDS011;1649;53.672;10.064;2023-07-29T12:14:20;6.20;;;3.87;;
3274;SDS011;1649;53.672;10.064;2023-07-29T12:16:47;5.60;;;3.73;;
3274;SDS011;1649;53.672;10.064;2023-07-29T12:19:14;5.90;;;3.63;;
3274;SDS011;1649;53.672;10.064;2023-07-29T12:21:43;6.07;;;3.60;;
3274;SDS011;1649;53.672;10.064;2023-07-29T12:24:13;6.90;;;3.50;;
3274;SDS011;1649;53.672;10.064;2023-07-29T12:26:40;10.10;;;3.97;;
3274;SDS011;1649;53.672;10.064;2023-07-29T12:29:12;5.83;;;3.40;;
3274;SDS011;1649;53.672;10.064;2023-07-29T12:31:39;4.93;;;2.70;;
3274;SDS011;1649;53.672;10.064;2023-07-29T12:34:05;4.63;;;2.50;;
3274;SDS011;1649;53.672;10.064;2023-07-29T12:36:41;6.60;;;3.07;;
3274;SDS011;1649;53.672;10.064;2023-07-29T12:39:20;4.80;;;2.63;;
3274;SDS011;1649;53.672;10.064;2023-07-29T12:41:47;5.50;;;3.47;;
3274;SDS011;1649;53.672;10.064;2023-07-29T12:44:13;5.70;;;3.10;;
3274;SDS011;1649;53.672;10.064;2023-07-29T12:46:39;4.53;;;2.57;;
3274;SDS011;1649;53.672;10.064;2023-07-29T12:49:05;4.80;;;2.70;;
3274;SDS011;1649;53.672;10.064;2023-07-29T12:51:31;4.37;;;2.40;;
3274;SDS011;1649;53.672;10.064;2023-07-29T12:53:56;5.00;;;2.40;;
3274;SDS011;1649;53.672;10.064;2023-07-29T12:56:22;5.30;;;2.87;;
3274;SDS011;1649;53.672;10.064;2023-07-29T12:58:47;4.50;;;2.47;;
3274;SDS011;1649;53.672;10.064;2023-07-29T13:01:13;5.37;;;2.63;;
3274;SDS011;1649;53.672;10.064;2023-07-29T13:03:42;4.97;;;2.60;;
3274;SDS011;1649;53.672;10.064;2023-07-29T13:06:08;4.90;;;2.67;;
3274;SDS011;1649;53.672;10.064;2023-07-29T13:08:34;5.20;;;2.67;;
3274;SDS011;1649;53.672;10.064;2023-07-29T13:10:59;5.27;;;2.33;;
3274;SDS011;1649;53.672;10.064;2023-07-29T13:13:25;4.40;;;2.50;;
3274;SDS011;1649;53.672;10.064;2023-07-29T13:15:50;4.60;;;2.27;;
3274;SDS011;1649;53.672;10.064;2023-07-29T13:18:16;5.13;;;2.93;;
3274;SDS011;1649;53.672;10.064;2023-07-29T13:20:42;4.10;;;2.00;;
3274;SDS011;1649;53.672;10.064;2023-07-29T13:23:07;6.47;;;2.40;;
3274;SDS011;1649;53.672;10.064;2023-07-29T13:25:32;5.40;;;2.40;;
3274;SDS011;1649;53.672;10.064;2023-07-29T13:27:58;4.10;;;2.30;;
3274;SDS011;1649;53.672;10.064;2023-07-29T13:30:23;5.20;;;2.30;;
3274;SDS011;1649;53.672;10.064;2023-07-29T13:32:49;4.50;;;2.47;;
3274;SDS011;1649;53.672;10.064;2023-07-29T13:35:14;4.70;;;2.07;;
3274;SDS011;1649;53.672;10.064;2023-07-29T13:37:40;4.50;;;2.60;;
3274;SDS011;1649;53.672;10.064;2023-07-29T13:40:05;4.30;;;2.30;;
3274;SDS011;1649;53.672;10.064;2023-07-29T13:42:31;4.50;;;2.77;;
3274;SDS011;1649;53.672;10.064;2023-07-29T13:44:57;4.20;;;2.20;;
3274;SDS011;1649;53.672;10.064;2023-07-29T13:47:22;4.93;;;2.60;;
3274;SDS011;1649;53.672;10.064;2023-07-29T13:49:48;6.73;;;2.70;;
3274;SDS011;1649;53.672;10.064;2023-07-29T13:52:13;5.10;;;2.90;;
3274;SDS011;1649;53.672;10.064;2023-07-29T13:54:39;5.87;;;2.90;;
3274;SDS011;1649;53.672;10.064;2023-07-29T13:57:05;4.53;;;2.40;;
3274;SDS011;1649;53.672;10.064;2023-07-29T13:59:31;5.77;;;2.90;;
3274;SDS011;1649;53.672;10.064;2023-07-29T14:01:57;4.30;;;2.50;;
3274;SDS011;1649;53.672;10.064;2023-07-29T14:04:22;5.90;;;2.63;;
3274;SDS011;1649;53.672;10.064;2023-07-29T14:06:48;5.03;;;2.67;;
3274;SDS011;1649;53.672;10.064;2023-07-29T14:09:13;4.77;;;2.60;;
3274;SDS011;1649;53.672;10.064;2023-07-29T14:11:39;5.23;;;2.30;;
3274;SDS011;1649;53.672;10.064;2023-07-29T14:14:04;5.27;;;2.70;;
3274;SDS011;1649;53.672;10.064;2023-07-29T14:16:30;6.17;;;2.43;;
3274;SDS011;1649;53.672;10.064;2023-07-29T14:18:55;5.27;;;2.60;;
3274;SDS011;1649;53.672;10.064;2023-07-29T14:21:21;4.53;;;2.53;;
3274;SDS011;1649;53.672;10.064;2023-07-29T14:23:46;6.17;;;2.27;;
3274;SDS011;1649;53.672;10.064;2023-07-29T14:26:12;6.63;;;2.60;;
3274;SDS011;1649;53.672;10.064;2023-07-29T14:28:37;4.70;;;2.70;;
3274;SDS011;1649;53.672;10.064;2023-07-29T14:31:03;4.60;;;2.17;;
3274;SDS011;1649;53.672;10.064;2023-07-29T14:33:28;4.30;;;2.13;;
3274;SDS011;1649;53.672;10.064;2023-07-29T14:35:54;5.00;;;2.70;;
3274;SDS011;1649;53.672;10.064;2023-07-29T14:38:19;6.63;;;2.50;;
3274;SDS011;1649;53.672;10.064;2023-07-29T14:40:47;5.13;;;2.90;;
3274;SDS011;1649;53.672;10.064;2023-07-29T14:43:12;4.17;;;2.30;;
3274;SDS011;1649;53.672;10.064;2023-07-29T14:45:38;4.40;;;2.27;;
3274;SDS011;1649;53.672;10.064;2023-07-29T14:48:04;4.70;;;2.23;;
3274;SDS011;1649;53.672;10.064;2023-07-29T14:50:29;4.60;;;2.20;;
3274;SDS011;1649;53.672;10.064;2023-07-29T14:52:55;4.00;;;2.00;;
3274;SDS011;1649;53.672;10.064;2023-07-29T14:55:20;4.87;;;2.47;;
3274;SDS011;1649;53.672;10.064;2023-07-29T14:57:46;5.53;;;2.70;;
3274;SDS011;1649;53.672;10.064;2023-07-29T15:00:12;4.50;;;2.37;;